• pl
  • eng

Awiacja
NEWS
last updated: 12.09.2019 14:49<\/div>
Dear users,
We would like to inform you that from September 2nd a test form of the GAFOR forecast is available on our webpage. Please send your comments and suggestions to gafor@imgw.pl that will contribute to product development.
TAF FC 00:30 20.01.2020
  • WIND
  • SIGNIFICANT EURO
  • SIGNIFICANT
  • SIGMET
  • AIRMET
  • TAF FC
  • TAF FT
  • METAR GG30
  • METAR GG00


TAF EPLB 192330Z 2000/2009 VRB02KT 1200 BR OVC003
TEMPO 2000/2007 0600 FG OVC001
PROB40 TEMPO 2000/2006 0300 FZFG
BECMG 2006/2009 5000 BR BKN008 BKN016=

TAF EPSY 192330Z 2000/2009 VRB03KT 8000 BKN016
PROB40 TEMPO 2003/2007 4000 BR BKN009
BECMG 2007/2009 27010KT=
Awiacja.imgw.pl jest pogodowym serwisem informacyjnym
Instytutu Meteorologii i Gospodarki Wodnej Państwowego Instytutu Badawczego.
Copyright IMGW PIB 2009-2019© Wszelkie prawa zastrzeżone.